createdAt,value
2022-12-29T00:00:08.403Z,21.10
2022-12-29T00:02:10.724Z,24.70
2022-12-29T00:04:16.333Z,22.67
2022-12-29T00:06:18.281Z,18.67
2022-12-29T00:08:20.209Z,18.95
2022-12-29T00:12:24.106Z,15.13
2022-12-29T00:14:49.177Z,16.73
2022-12-29T00:17:01.936Z,16.52
2022-12-29T00:19:05.445Z,17.20
2022-12-29T00:21:27.332Z,15.50
2022-12-29T00:23:48.003Z,18.85
2022-12-29T00:26:08.393Z,19.80
2022-12-29T00:28:29.167Z,19.27
2022-12-29T00:30:49.707Z,24.52
2022-12-29T00:33:10.351Z,22.10
2022-12-29T00:35:19.122Z,25.02
2022-12-29T00:37:41.236Z,24.75
2022-12-29T00:40:01.877Z,28.08
2022-12-29T00:42:26.470Z,22.85
2022-12-29T00:44:28.343Z,21.05
2022-12-29T00:46:30.296Z,22.23
2022-12-29T00:50:57.147Z,22.77
2022-12-29T00:52:59.047Z,19.58
2022-12-29T00:55:00.877Z,18.52
2022-12-29T00:57:03.708Z,21.65
2022-12-29T00:59:11.778Z,20.27
2022-12-29T01:01:14.748Z,19.38
2022-12-29T01:03:16.825Z,17.67
2022-12-29T01:05:19.984Z,18.17
2022-12-29T01:07:22.038Z,17.27
2022-12-29T01:11:52.570Z,17.75
2022-12-29T01:13:54.499Z,18.33
2022-12-29T01:17:58.563Z,16.88
2022-12-29T01:22:02.722Z,25.27
2022-12-29T01:24:04.862Z,23.15
2022-12-29T01:26:11.616Z,21.88
2022-12-29T01:28:13.484Z,18.27
2022-12-29T01:30:16.086Z,21.75
2022-12-29T01:32:20.326Z,20.30
2022-12-29T01:36:24.997Z,15.85
2022-12-29T01:38:26.881Z,17.77
2022-12-29T01:44:50.183Z,16.77
2022-12-29T01:46:52.563Z,21.52
2022-12-29T01:49:08.832Z,17.65
2022-12-29T01:51:10.894Z,19.50
2022-12-29T01:53:21.345Z,20.27
2022-12-29T01:55:23.962Z,19.25
2022-12-29T01:57:31.197Z,20.75
2022-12-29T01:59:39.583Z,22.55
2022-12-29T02:01:41.659Z,25.42
2022-12-29T02:03:43.748Z,33.78
2022-12-29T02:06:16.439Z,39.45
2022-12-29T02:08:20.376Z,30.80
2022-12-29T02:10:25.504Z,27.70
2022-12-29T02:12:27.365Z,30.45
2022-12-29T02:14:30.421Z,23.73
2022-12-29T02:16:44.521Z,21.13
2022-12-29T02:19:24.356Z,22.50
2022-12-29T02:22:03.969Z,21.00
2022-12-29T02:24:17.521Z,26.35
2022-12-29T02:26:26.850Z,26.10
2022-12-29T02:28:46.309Z,27.05
2022-12-29T02:31:27.462Z,24.83
2022-12-29T02:33:59.898Z,23.75
2022-12-29T02:36:01.729Z,23.35
2022-12-29T02:38:03.541Z,23.45
2022-12-29T02:40:20.164Z,22.02
2022-12-29T02:42:30.959Z,23.15
2022-12-29T02:45:11.728Z,20.70
2022-12-29T02:47:23.576Z,21.33
2022-12-29T02:49:34.614Z,22.13
2022-12-29T02:52:18.749Z,23.70
2022-12-29T02:54:39.445Z,23.77
2022-12-29T02:56:41.405Z,24.05
2022-12-29T03:01:20.336Z,22.60
2022-12-29T03:03:28.526Z,20.92
2022-12-29T03:05:33.298Z,22.63
2022-12-29T03:07:54.055Z,22.90
2022-12-29T03:09:55.898Z,22.90
2022-12-29T03:12:46.974Z,23.33
2022-12-29T03:15:30.212Z,19.88
2022-12-29T03:17:46.250Z,19.23
2022-12-29T03:19:52.322Z,22.13
2022-12-29T03:22:15.574Z,20.83
2022-12-29T03:24:26.361Z,20.88
2022-12-29T03:26:28.848Z,21.10
2022-12-29T03:28:39.804Z,23.27
2022-12-29T03:30:44.672Z,21.42
2022-12-29T03:32:59.668Z,21.35
2022-12-29T03:35:03.021Z,23.75
2022-12-29T03:37:14.038Z,30.50
2022-12-29T03:39:18.228Z,26.33
2022-12-29T03:41:24.939Z,24.63
2022-12-29T03:43:28.111Z,25.85
2022-12-29T03:45:30.030Z,29.63
2022-12-29T03:49:34.050Z,33.42
2022-12-29T03:51:35.988Z,28.83
2022-12-29T03:55:39.928Z,26.50
2022-12-29T03:57:41.843Z,33.72
2022-12-29T04:01:45.673Z,33.25
2022-12-29T04:03:47.617Z,29.23
2022-12-29T04:07:52.617Z,21.17
2022-12-29T04:09:54.491Z,18.75
2022-12-29T04:13:58.092Z,20.00
2022-12-29T04:15:59.989Z,22.70
2022-12-29T04:20:22.678Z,19.80
2022-12-29T04:22:24.537Z,22.92
2022-12-29T04:24:26.416Z,21.55
2022-12-29T04:26:28.332Z,20.85
2022-12-29T04:30:32.459Z,18.65
2022-12-29T04:34:36.306Z,18.77
2022-12-29T04:36:38.313Z,17.75
2022-12-29T04:38:40.258Z,18.90
2022-12-29T04:42:44.822Z,19.67
2022-12-29T04:46:48.421Z,18.85
2022-12-29T04:50:52.109Z,17.13
2022-12-29T04:52:54.313Z,21.00
2022-12-29T04:54:56.230Z,20.65
2022-12-29T04:58:59.866Z,18.92
2022-12-29T05:01:01.763Z,17.77
2022-12-29T05:05:06.528Z,17.90
2022-12-29T05:07:08.994Z,19.17
2022-12-29T05:09:12.042Z,20.27
2022-12-29T05:11:13.919Z,18.48
2022-12-29T05:15:18.584Z,18.13
2022-12-29T05:17:20.685Z,16.80
2022-12-29T05:21:24.395Z,17.02
2022-12-29T05:25:28.075Z,19.13
2022-12-29T05:29:31.739Z,19.30
2022-12-29T05:33:35.807Z,25.90
2022-12-29T05:35:37.651Z,25.08
2022-12-29T05:39:41.367Z,22.42
2022-12-29T05:43:45.036Z,22.02
2022-12-29T05:47:51.173Z,25.88
2022-12-29T05:49:53.536Z,33.38
2022-12-29T05:51:55.518Z,32.97
2022-12-29T05:55:59.231Z,32.13
2022-12-29T06:00:04.975Z,26.60
2022-12-29T06:02:07.063Z,27.73
2022-12-29T06:04:09.263Z,21.65
2022-12-29T06:08:13.362Z,21.35
2022-12-29T06:10:15.318Z,19.08
2022-12-29T06:14:19.171Z,18.20
2022-12-29T06:18:25.268Z,20.73
2022-12-29T06:20:27.170Z,18.52
2022-12-29T06:24:30.951Z,20.13
2022-12-29T06:26:32.855Z,19.38
2022-12-29T06:28:34.735Z,22.52
2022-12-29T06:32:38.641Z,23.15
2022-12-29T06:36:42.600Z,26.75
2022-12-29T06:40:46.511Z,34.30
2022-12-29T06:42:48.510Z,35.08
2022-12-29T06:46:52.609Z,34.35
2022-12-29T06:48:54.487Z,32.92
2022-12-29T06:50:56.389Z,32.88
2022-12-29T06:52:58.247Z,25.60
2022-12-29T06:55:00.314Z,25.92
2022-12-29T06:59:04.295Z,23.85
2022-12-29T07:01:06.323Z,27.90
2022-12-29T07:05:11.248Z,39.70
2022-12-29T07:07:13.174Z,55.67
2022-12-29T07:11:16.936Z,27.70
2022-12-29T07:13:19.493Z,21.92
2022-12-29T07:15:21.409Z,18.75
2022-12-29T07:19:25.001Z,18.92
2022-12-29T07:21:27.234Z,18.13
2022-12-29T07:23:29.131Z,18.85
2022-12-29T07:27:32.952Z,16.73
2022-12-29T07:31:36.885Z,19.77
2022-12-29T07:33:38.903Z,20.75
2022-12-29T07:37:42.524Z,17.83
2022-12-29T07:41:46.338Z,19.02
2022-12-29T07:43:49.881Z,19.05
2022-12-29T07:45:51.911Z,19.90
2022-12-29T07:49:55.577Z,17.15
2022-12-29T07:51:57.475Z,18.38
2022-12-29T07:54:01.516Z,18.63
2022-12-29T07:56:03.535Z,20.25
2022-12-29T08:00:08.069Z,18.63
2022-12-29T08:02:12.745Z,19.30
2022-12-29T08:04:16.963Z,14.23
2022-12-29T08:06:19.593Z,12.23
2022-12-29T08:08:22.889Z,13.07
2022-12-29T08:10:25.424Z,13.10
2022-12-29T08:12:27.728Z,11.70
2022-12-29T08:14:29.655Z,11.88
2022-12-29T08:16:31.704Z,12.05
2022-12-29T08:20:35.414Z,12.23
2022-12-29T08:22:37.406Z,11.95
2022-12-29T08:26:41.075Z,11.27
2022-12-29T08:28:43.106Z,11.50
2022-12-29T08:32:46.874Z,10.05
2022-12-29T08:34:48.834Z,10.65
2022-12-29T08:38:52.676Z,11.70
2022-12-29T08:42:56.729Z,10.57
2022-12-29T08:45:02.243Z,11.27
2022-12-29T08:47:04.183Z,10.85
2022-12-29T08:49:06.173Z,12.48
2022-12-29T08:53:11.216Z,10.88
2022-12-29T08:57:15.088Z,11.37
2022-12-29T08:59:17.103Z,14.18
2022-12-29T09:01:19.351Z,12.35
2022-12-29T09:03:54.479Z,13.63
2022-12-29T09:05:44.401Z,12.35
2022-12-29T09:07:47.587Z,13.25
2022-12-29T09:09:49.559Z,10.63
2022-12-29T09:11:51.463Z,9.75
2022-12-29T09:13:54.200Z,11.00
2022-12-29T09:16:00.484Z,11.40
2022-12-29T09:18:02.716Z,10.13
2022-12-29T09:20:05.522Z,10.88
2022-12-29T09:22:07.400Z,8.30
2022-12-29T09:24:09.329Z,8.70
2022-12-29T09:26:11.232Z,10.02
2022-12-29T09:28:13.415Z,9.65
2022-12-29T09:30:15.735Z,11.10
2022-12-29T09:32:18.724Z,9.98
2022-12-29T09:34:21.833Z,9.65
2022-12-29T09:38:27.768Z,8.30
2022-12-29T09:40:34.349Z,9.48
2022-12-29T09:42:45.651Z,9.20
2022-12-29T09:45:16.513Z,9.05
2022-12-29T09:47:21.126Z,10.60
2022-12-29T09:49:47.187Z,11.52
2022-12-29T09:51:55.124Z,11.38
2022-12-29T09:54:06.462Z,10.50
2022-12-29T09:56:17.091Z,8.18
2022-12-29T09:58:36.189Z,9.38
2022-12-29T10:01:08.893Z,9.77
2022-12-29T10:05:44.925Z,8.10
2022-12-29T10:08:17.300Z,8.68
2022-12-29T10:12:39.533Z,6.65
2022-12-29T10:14:53.023Z,6.45
2022-12-29T10:17:18.993Z,6.80
2022-12-29T10:19:33.348Z,7.13
2022-12-29T10:21:51.499Z,7.18
2022-12-29T10:23:54.510Z,6.68
2022-12-29T10:25:58.696Z,6.15
2022-12-29T10:28:06.930Z,7.03
2022-12-29T10:30:13.942Z,6.90
2022-12-29T10:32:56.476Z,7.22
2022-12-29T10:35:06.144Z,7.82
2022-12-29T10:37:18.413Z,8.43
2022-12-29T10:41:40.817Z,6.88
2022-12-29T10:43:46.359Z,7.78
2022-12-29T10:45:49.730Z,7.55
2022-12-29T10:48:00.483Z,7.72
2022-12-29T10:50:04.066Z,8.25
2022-12-29T10:52:07.275Z,7.95
2022-12-29T10:54:19.484Z,8.68
2022-12-29T10:56:36.712Z,9.93
2022-12-29T10:58:39.100Z,10.02
2022-12-29T11:00:41.495Z,10.80
2022-12-29T11:02:52.712Z,11.30
2022-12-29T11:05:15.234Z,9.70
2022-12-29T11:07:25.049Z,9.38
2022-12-29T11:09:41.875Z,10.98
2022-12-29T11:11:47.064Z,9.00
2022-12-29T11:13:59.218Z,8.88
2022-12-29T11:16:02.076Z,8.43
2022-12-29T11:18:04.098Z,7.80
2022-12-29T11:20:43.472Z,9.70
2022-12-29T11:22:46.542Z,16.30
2022-12-29T11:24:52.397Z,13.07
2022-12-29T11:27:15.713Z,12.48
2022-12-29T11:29:17.586Z,11.63
2022-12-29T11:31:23.316Z,11.68
2022-12-29T11:33:28.284Z,11.77
2022-12-29T11:35:36.012Z,12.88
2022-12-29T11:37:41.181Z,10.02
2022-12-29T11:40:16.444Z,10.95
2022-12-29T11:42:23.541Z,9.85
2022-12-29T11:44:26.207Z,11.23
2022-12-29T11:46:34.931Z,13.57
2022-12-29T11:48:41.595Z,13.27
2022-12-29T11:50:49.918Z,18.30
2022-12-29T11:53:01.193Z,17.80
2022-12-29T11:55:06.339Z,15.30
2022-12-29T11:57:17.948Z,10.77
2022-12-29T11:59:46.922Z,11.15
2022-12-29T14:13:27.497Z,18.42
2022-12-29T14:15:29.417Z,20.83
2022-12-29T14:17:31.305Z,22.42
2022-12-29T14:19:42.282Z,22.00
2022-12-29T14:21:59.145Z,23.20
2022-12-29T14:24:38.683Z,43.95
2022-12-29T14:26:40.583Z,52.53
2022-12-29T14:28:44.995Z,55.55
2022-12-29T14:30:55.419Z,45.28
2022-12-29T14:33:12.628Z,48.67
2022-12-29T14:35:50.648Z,53.60
2022-12-29T14:38:07.790Z,39.53
2022-12-29T14:40:20.064Z,38.00
2022-12-29T14:44:25.824Z,22.83
2022-12-29T14:46:46.976Z,20.40
2022-12-29T14:48:54.260Z,15.93
2022-12-29T14:50:56.816Z,15.50
2022-12-29T14:53:06.077Z,15.38
2022-12-29T14:55:07.984Z,15.40
2022-12-29T14:57:25.769Z,16.10
2022-12-29T14:59:28.503Z,15.10
2022-12-29T15:01:53.345Z,15.15
2022-12-29T15:03:59.822Z,12.57
2022-12-29T15:06:12.434Z,16.15
2022-12-29T15:08:19.621Z,17.80
2022-12-29T15:10:23.950Z,19.67
2022-12-29T15:12:40.687Z,21.92
2022-12-29T15:14:52.843Z,22.05
2022-12-29T15:16:54.807Z,21.75
2022-12-29T15:21:07.290Z,21.63
2022-12-29T15:23:17.101Z,20.73
2022-12-29T15:25:19.357Z,20.95
2022-12-29T15:27:24.164Z,21.02
2022-12-29T15:29:32.045Z,24.40
2022-12-29T15:31:34.001Z,22.08
2022-12-29T15:35:40.545Z,24.95
2022-12-29T15:37:42.453Z,25.70
2022-12-29T15:39:44.362Z,28.38
2022-12-29T15:42:02.804Z,26.20
2022-12-29T15:44:18.028Z,25.50
2022-12-29T15:46:20.522Z,30.48
2022-12-29T15:48:25.436Z,30.98
2022-12-29T15:50:32.983Z,31.90
2022-12-29T15:52:35.325Z,33.67
2022-12-29T15:54:38.769Z,34.38
2022-12-29T15:56:42.610Z,35.83
2022-12-29T15:58:51.476Z,31.42
2022-12-29T16:00:59.569Z,32.50
2022-12-29T16:03:05.198Z,36.03
2022-12-29T16:05:17.517Z,35.03
2022-12-29T16:07:27.881Z,33.65
2022-12-29T16:09:55.355Z,37.95
2022-12-29T16:12:00.881Z,33.53
2022-12-29T16:14:07.744Z,35.00
2022-12-29T16:16:20.394Z,50.30
2022-12-29T16:18:33.827Z,31.67
2022-12-29T16:20:43.569Z,34.10
2022-12-29T16:22:51.592Z,33.67
2022-12-29T16:25:04.758Z,34.10
2022-12-29T16:27:15.858Z,33.20
2022-12-29T16:29:19.005Z,30.65
2022-12-29T16:31:48.836Z,30.20
2022-12-29T16:33:56.166Z,27.75
2022-12-29T16:35:58.115Z,28.90
2022-12-29T16:38:22.381Z,34.30
2022-12-29T16:40:30.326Z,33.75
2022-12-29T16:42:45.694Z,41.88
2022-12-29T16:45:01.983Z,41.10
2022-12-29T16:47:12.903Z,41.28
2022-12-29T16:49:21.526Z,43.63
2022-12-29T16:51:31.222Z,44.25
2022-12-29T16:53:37.762Z,50.88
2022-12-29T16:55:46.764Z,43.38
2022-12-29T16:57:50.806Z,41.53
2022-12-29T16:59:57.209Z,41.25
2022-12-29T17:02:01.089Z,40.28
2022-12-29T17:04:08.931Z,43.13
2022-12-29T17:06:19.063Z,43.45
2022-12-29T17:08:24.892Z,45.90
2022-12-29T17:10:46.955Z,48.00
2022-12-29T17:12:49.867Z,54.33
2022-12-29T17:15:02.990Z,53.63
2022-12-29T17:17:10.107Z,55.25
2022-12-29T17:19:27.795Z,57.88
2022-12-29T17:21:29.747Z,52.42
2022-12-29T17:23:34.621Z,55.20
2022-12-29T17:25:38.594Z,54.08
2022-12-29T17:27:44.652Z,50.53
2022-12-29T17:29:47.587Z,53.95
2022-12-29T17:31:49.657Z,54.95
2022-12-29T17:35:55.892Z,52.60
2022-12-29T17:37:58.166Z,55.38
2022-12-29T17:42:02.065Z,56.63
2022-12-29T17:44:05.092Z,62.50
2022-12-29T17:46:09.116Z,57.75
2022-12-29T17:48:17.928Z,52.33
2022-12-29T17:50:22.083Z,58.63
2022-12-29T17:52:24.125Z,62.55
2022-12-29T17:56:28.544Z,68.97
2022-12-29T17:58:33.506Z,67.85
2022-12-29T18:00:35.842Z,78.32
2022-12-29T18:02:37.938Z,61.38
2022-12-29T18:04:40.070Z,60.53
2022-12-29T18:06:42.962Z,53.90
2022-12-29T18:08:45.562Z,70.05
2022-12-29T18:10:48.034Z,65.65
2022-12-29T18:12:52.133Z,51.90
2022-12-29T18:14:54.294Z,60.67
2022-12-29T18:16:56.196Z,48.08
2022-12-29T18:18:58.089Z,53.60
2022-12-29T18:21:00.400Z,48.33
2022-12-29T18:23:02.371Z,45.58
2022-12-29T18:25:26.920Z,57.55
2022-12-29T18:27:29.288Z,52.33
2022-12-29T18:29:31.557Z,42.75
2022-12-29T18:31:35.339Z,41.50
2022-12-29T18:33:37.516Z,37.28
2022-12-29T18:35:43.060Z,38.28
2022-12-29T18:37:45.011Z,43.33
2022-12-29T18:39:46.865Z,42.13
2022-12-29T18:41:48.801Z,38.25
2022-12-29T18:43:51.151Z,31.65
2022-12-29T18:45:53.216Z,31.27
2022-12-29T18:49:57.547Z,24.75
2022-12-29T18:51:59.451Z,29.70
2022-12-29T18:54:03.051Z,26.63
2022-12-29T18:56:06.768Z,24.35
2022-12-29T18:58:09.642Z,25.60
2022-12-29T19:00:13.245Z,22.50
2022-12-29T19:02:18.074Z,21.20
2022-12-29T19:04:20.069Z,24.05
2022-12-29T19:06:25.128Z,29.05
2022-12-29T19:08:27.946Z,28.67
2022-12-29T19:10:30.172Z,21.98
2022-12-29T19:12:32.144Z,33.10
2022-12-29T19:14:38.731Z,22.80
2022-12-29T19:16:40.775Z,19.17
2022-12-29T19:20:50.266Z,20.40
2022-12-29T19:22:52.510Z,21.23
2022-12-29T19:24:59.761Z,19.85
2022-12-29T19:27:02.717Z,21.83
2022-12-29T19:29:06.851Z,22.30
2022-12-29T19:31:10.444Z,22.20
2022-12-29T19:33:12.667Z,21.60
2022-12-29T19:35:15.397Z,21.95
2022-12-29T19:37:17.478Z,21.42
2022-12-29T19:41:22.652Z,23.27
2022-12-29T19:43:25.095Z,22.20
2022-12-29T19:45:30.532Z,26.38
2022-12-29T19:47:34.640Z,24.30
2022-12-29T19:49:37.211Z,26.48
2022-12-29T19:51:40.027Z,28.40
2022-12-29T19:53:42.611Z,26.42
2022-12-29T19:55:46.939Z,26.60
2022-12-29T19:57:49.545Z,23.70
2022-12-29T19:59:51.982Z,24.92
2022-12-29T20:01:54.272Z,22.05
2022-12-29T20:03:56.937Z,22.00
2022-12-29T20:05:58.936Z,23.10
2022-12-29T20:10:06.327Z,21.90
2022-12-29T20:12:08.831Z,24.73
2022-12-29T20:14:11.248Z,21.38
2022-12-29T20:16:19.110Z,22.38
2022-12-29T20:18:28.788Z,22.58
2022-12-29T20:20:34.454Z,21.50
2022-12-29T20:22:36.676Z,21.73
2022-12-29T20:24:42.747Z,22.20
2022-12-29T20:26:49.585Z,23.33
2022-12-29T20:28:52.749Z,21.70
2022-12-29T20:30:59.498Z,20.25
2022-12-29T20:33:07.670Z,20.88
2022-12-29T20:35:12.450Z,20.23
2022-12-29T20:37:15.366Z,22.52
2022-12-29T20:39:20.160Z,18.92
2022-12-29T20:41:23.114Z,20.63
2022-12-29T20:43:25.192Z,22.17
2022-12-29T20:47:29.443Z,22.90
2022-12-29T20:49:31.893Z,22.48
2022-12-29T20:52:03.866Z,23.65
2022-12-29T20:53:57.262Z,26.17
2022-12-29T20:56:05.622Z,24.60
2022-12-29T20:58:23.519Z,24.73
2022-12-29T21:00:26.330Z,25.15
2022-12-29T21:04:49.956Z,23.75
2022-12-29T21:06:52.677Z,23.58
2022-12-29T21:08:55.280Z,22.30
2022-12-29T21:11:01.034Z,25.90
2022-12-29T21:13:03.316Z,27.55
2022-12-29T21:15:05.741Z,24.65
2022-12-29T21:17:07.898Z,25.92
2022-12-29T21:19:09.907Z,29.60
2022-12-29T21:21:24.071Z,29.67
2022-12-29T21:23:26.974Z,28.75
2022-12-29T21:25:39.547Z,26.88
2022-12-29T21:27:44.535Z,29.90
2022-12-29T21:29:46.528Z,32.42
2022-12-29T21:31:48.550Z,36.45
2022-12-29T21:33:51.359Z,37.30
2022-12-29T21:35:53.265Z,43.22
2022-12-29T21:37:55.140Z,44.05
2022-12-29T21:39:57.145Z,48.72
2022-12-29T21:44:35.005Z,48.05
2022-12-29T21:46:38.525Z,41.67
2022-12-29T21:48:41.076Z,40.83
2022-12-29T21:51:03.936Z,39.35
2022-12-29T21:53:05.891Z,40.72
2022-12-29T21:55:09.072Z,43.50
2022-12-29T21:57:16.584Z,36.45
2022-12-29T21:59:41.384Z,32.53
2022-12-29T22:02:01.743Z,31.95
2022-12-29T22:04:22.301Z,33.28
2022-12-29T22:06:42.813Z,31.30
2022-12-29T22:09:03.631Z,28.48
2022-12-29T22:11:27.609Z,25.02
2022-12-29T22:13:32.695Z,28.52
2022-12-29T22:15:37.347Z,28.00
2022-12-29T22:17:43.656Z,26.92
2022-12-29T22:19:48.733Z,26.35
2022-12-29T22:21:50.623Z,27.05
2022-12-29T22:23:52.513Z,28.27
2022-12-29T22:25:54.387Z,29.90
2022-12-29T22:30:02.020Z,25.20
2022-12-29T22:32:04.028Z,27.08
2022-12-29T22:34:06.148Z,27.38
2022-12-29T22:38:09.946Z,24.17
2022-12-29T22:42:14.209Z,24.02
2022-12-29T22:46:18.037Z,41.50
2022-12-29T22:48:20.389Z,42.40
2022-12-29T22:50:22.388Z,41.10
2022-12-29T22:54:26.559Z,38.80
2022-12-29T22:58:30.539Z,33.53
2022-12-29T23:00:32.532Z,36.58
2022-12-29T23:06:59.286Z,31.92
2022-12-29T23:09:04.135Z,38.53
2022-12-29T23:11:08.801Z,39.30
2022-12-29T23:13:10.675Z,35.72
2022-12-29T23:15:12.600Z,41.05
2022-12-29T23:17:14.520Z,36.50
2022-12-29T23:21:19.849Z,33.65
2022-12-29T23:23:48.098Z,36.00
2022-12-29T23:25:50.580Z,33.88
2022-12-29T23:27:52.452Z,30.90
2022-12-29T23:29:54.342Z,32.03
2022-12-29T23:31:56.193Z,29.30
2022-12-29T23:33:59.699Z,37.42
2022-12-29T23:36:01.571Z,32.97
2022-12-29T23:38:03.436Z,36.20
2022-12-29T23:40:07.126Z,36.60
2022-12-29T23:42:09.115Z,34.70
2022-12-29T23:46:18.677Z,28.83
2022-12-29T23:48:20.746Z,27.08
2022-12-29T23:50:22.932Z,27.48
2022-12-29T23:52:24.776Z,30.23
2022-12-29T23:54:27.754Z,30.75
2022-12-29T23:56:29.810Z,29.05
